sensor_id;sensor_type;location;lat;lon;timestamp;P1;durP1;ratioP1;P2;durP2;ratioP2
77061;SDS011;65989;51.686;5.138;2023-04-24T00:02:02;15.25;;;9.63;;
77061;SDS011;65989;51.686;5.138;2023-04-24T00:04:28;17.23;;;10.83;;
77061;SDS011;65989;51.686;5.138;2023-04-24T00:06:54;19.08;;;11.32;;
77061;SDS011;65989;51.686;5.138;2023-04-24T00:09:22;20.27;;;12.07;;
77061;SDS011;65989;51.686;5.138;2023-04-24T00:11:48;24.73;;;14.25;;
77061;SDS011;65989;51.686;5.138;2023-04-24T00:14:13;24.33;;;15.03;;
77061;SDS011;65989;51.686;5.138;2023-04-24T00:16:39;25.73;;;14.77;;
77061;SDS011;65989;51.686;5.138;2023-04-24T00:19:04;24.10;;;14.65;;
77061;SDS011;65989;51.686;5.138;2023-04-24T00:21:31;25.27;;;14.53;;
77061;SDS011;65989;51.686;5.138;2023-04-24T00:23:57;28.80;;;16.35;;
77061;SDS011;65989;51.686;5.138;2023-04-24T00:26:23;31.58;;;16.73;;
77061;SDS011;65989;51.686;5.138;2023-04-24T00:28:48;31.73;;;16.60;;
77061;SDS011;65989;51.686;5.138;2023-04-24T00:31:14;28.27;;;16.10;;
77061;SDS011;65989;51.686;5.138;2023-04-24T00:33:39;30.48;;;17.05;;
77061;SDS011;65989;51.686;5.138;2023-04-24T00:36:05;32.73;;;17.30;;
77061;SDS011;65989;51.686;5.138;2023-04-24T00:38:30;30.40;;;16.87;;
77061;SDS011;65989;51.686;5.138;2023-04-24T00:40:56;30.10;;;16.73;;
77061;SDS011;65989;51.686;5.138;2023-04-24T00:43:21;32.80;;;17.30;;
77061;SDS011;65989;51.686;5.138;2023-04-24T00:45:47;33.93;;;18.03;;
77061;SDS011;65989;51.686;5.138;2023-04-24T00:48:12;36.63;;;18.40;;
77061;SDS011;65989;51.686;5.138;2023-04-24T00:50:38;32.17;;;18.20;;
77061;SDS011;65989;51.686;5.138;2023-04-24T00:53:04;32.83;;;18.20;;
77061;SDS011;65989;51.686;5.138;2023-04-24T00:55:29;32.03;;;18.37;;
77061;SDS011;65989;51.686;5.138;2023-04-24T00:57:56;29.88;;;17.45;;
77061;SDS011;65989;51.686;5.138;2023-04-24T01:00:22;32.77;;;18.57;;
77061;SDS011;65989;51.686;5.138;2023-04-24T01:02:47;29.65;;;17.33;;
77061;SDS011;65989;51.686;5.138;2023-04-24T01:05:14;33.37;;;16.57;;
77061;SDS011;65989;51.686;5.138;2023-04-24T01:07:43;28.02;;;16.58;;
77061;SDS011;65989;51.686;5.138;2023-04-24T01:10:10;31.70;;;17.60;;
77061;SDS011;65989;51.686;5.138;2023-04-24T01:12:37;30.63;;;17.02;;
77061;SDS011;65989;51.686;5.138;2023-04-24T01:15:03;32.90;;;17.60;;
77061;SDS011;65989;51.686;5.138;2023-04-24T01:17:29;31.83;;;18.33;;
77061;SDS011;65989;51.686;5.138;2023-04-24T01:19:54;32.40;;;18.23;;
77061;SDS011;65989;51.686;5.138;2023-04-24T01:22:21;29.50;;;17.95;;
77061;SDS011;65989;51.686;5.138;2023-04-24T01:24:47;32.13;;;18.80;;
77061;SDS011;65989;51.686;5.138;2023-04-24T01:27:12;35.37;;;19.93;;
77061;SDS011;65989;51.686;5.138;2023-04-24T01:29:38;31.75;;;18.98;;
77061;SDS011;65989;51.686;5.138;2023-04-24T01:32:04;32.10;;;19.10;;
77061;SDS011;65989;51.686;5.138;2023-04-24T01:34:31;29.33;;;18.00;;
77061;SDS011;65989;51.686;5.138;2023-04-24T01:36:57;28.87;;;17.60;;
77061;SDS011;65989;51.686;5.138;2023-04-24T01:39:23;27.67;;;17.40;;
77061;SDS011;65989;51.686;5.138;2023-04-24T01:41:50;26.58;;;15.90;;
77061;SDS011;65989;51.686;5.138;2023-04-24T01:44:17;25.52;;;15.70;;
77061;SDS011;65989;51.686;5.138;2023-04-24T01:46:43;25.03;;;15.50;;
77061;SDS011;65989;51.686;5.138;2023-04-24T01:49:08;24.17;;;15.60;;
77061;SDS011;65989;51.686;5.138;2023-04-24T01:51:34;22.23;;;14.40;;
77061;SDS011;65989;51.686;5.138;2023-04-24T01:53:59;26.17;;;16.03;;
77061;SDS011;65989;51.686;5.138;2023-04-24T01:56:25;25.35;;;16.15;;
77061;SDS011;65989;51.686;5.138;2023-04-24T01:58:51;28.80;;;16.13;;
77061;SDS011;65989;51.686;5.138;2023-04-24T02:01:19;30.73;;;17.58;;
77061;SDS011;65989;51.686;5.138;2023-04-24T02:03:45;32.40;;;17.25;;
77061;SDS011;65989;51.686;5.138;2023-04-24T02:06:11;28.97;;;17.43;;
77061;SDS011;65989;51.686;5.138;2023-04-24T02:08:36;32.83;;;19.33;;
77061;SDS011;65989;51.686;5.138;2023-04-24T02:11:01;31.40;;;18.63;;
77061;SDS011;65989;51.686;5.138;2023-04-24T02:13:27;27.93;;;18.27;;
77061;SDS011;65989;51.686;5.138;2023-04-24T02:15:53;31.42;;;17.48;;
77061;SDS011;65989;51.686;5.138;2023-04-24T02:18:18;30.13;;;18.13;;
77061;SDS011;65989;51.686;5.138;2023-04-24T02:20:43;30.00;;;16.53;;
77061;SDS011;65989;51.686;5.138;2023-04-24T02:23:09;31.67;;;16.57;;
77061;SDS011;65989;51.686;5.138;2023-04-24T02:25:34;26.27;;;15.80;;
77061;SDS011;65989;51.686;5.138;2023-04-24T02:28:00;30.17;;;16.90;;
77061;SDS011;65989;51.686;5.138;2023-04-24T02:30:25;31.13;;;15.97;;
77061;SDS011;65989;51.686;5.138;2023-04-24T02:32:51;28.77;;;16.83;;
77061;SDS011;65989;51.686;5.138;2023-04-24T02:35:16;27.17;;;15.57;;
77061;SDS011;65989;51.686;5.138;2023-04-24T02:37:42;27.93;;;17.13;;
77061;SDS011;65989;51.686;5.138;2023-04-24T02:40:08;29.60;;;15.70;;
77061;SDS011;65989;51.686;5.138;2023-04-24T02:42:34;28.73;;;16.47;;
77061;SDS011;65989;51.686;5.138;2023-04-24T02:44:59;27.90;;;16.50;;
77061;SDS011;65989;51.686;5.138;2023-04-24T02:47:25;27.93;;;15.13;;
77061;SDS011;65989;51.686;5.138;2023-04-24T02:49:50;28.30;;;15.57;;
77061;SDS011;65989;51.686;5.138;2023-04-24T02:52:16;29.35;;;17.25;;
77061;SDS011;65989;51.686;5.138;2023-04-24T02:54:41;27.13;;;16.63;;
77061;SDS011;65989;51.686;5.138;2023-04-24T02:57:07;29.58;;;17.45;;
77061;SDS011;65989;51.686;5.138;2023-04-24T02:59:33;34.97;;;18.53;;
77061;SDS011;65989;51.686;5.138;2023-04-24T03:01:59;30.98;;;16.88;;
77061;SDS011;65989;51.686;5.138;2023-04-24T03:04:24;38.07;;;17.63;;
77061;SDS011;65989;51.686;5.138;2023-04-24T03:06:50;30.67;;;17.08;;
77061;SDS011;65989;51.686;5.138;2023-04-24T03:09:17;35.92;;;17.80;;
77061;SDS011;65989;51.686;5.138;2023-04-24T03:11:43;31.87;;;18.00;;
77061;SDS011;65989;51.686;5.138;2023-04-24T03:14:09;29.67;;;17.60;;
77061;SDS011;65989;51.686;5.138;2023-04-24T03:16:34;31.40;;;17.48;;
77061;SDS011;65989;51.686;5.138;2023-04-24T03:18:59;29.03;;;16.30;;
77061;SDS011;65989;51.686;5.138;2023-04-24T03:21:25;33.37;;;17.03;;
77061;SDS011;65989;51.686;5.138;2023-04-24T03:23:51;31.20;;;16.38;;
77061;SDS011;65989;51.686;5.138;2023-04-24T03:26:17;31.63;;;16.60;;
77061;SDS011;65989;51.686;5.138;2023-04-24T03:28:42;28.17;;;16.20;;
77061;SDS011;65989;51.686;5.138;2023-04-24T03:31:07;27.67;;;15.85;;
77061;SDS011;65989;51.686;5.138;2023-04-24T03:33:33;25.73;;;14.50;;
77061;SDS011;65989;51.686;5.138;2023-04-24T03:35:58;27.50;;;15.17;;
77061;SDS011;65989;51.686;5.138;2023-04-24T03:38:24;28.50;;;15.23;;
77061;SDS011;65989;51.686;5.138;2023-04-24T03:40:49;27.67;;;15.37;;
77061;SDS011;65989;51.686;5.138;2023-04-24T03:43:14;27.77;;;15.13;;
77061;SDS011;65989;51.686;5.138;2023-04-24T03:45:40;26.17;;;14.57;;
77061;SDS011;65989;51.686;5.138;2023-04-24T03:48:05;26.57;;;14.83;;
77061;SDS011;65989;51.686;5.138;2023-04-24T03:50:31;26.70;;;13.93;;
77061;SDS011;65989;51.686;5.138;2023-04-24T03:52:56;24.97;;;13.77;;
77061;SDS011;65989;51.686;5.138;2023-04-24T03:55:22;25.67;;;14.23;;
77061;SDS011;65989;51.686;5.138;2023-04-24T03:57:47;20.90;;;12.83;;
77061;SDS011;65989;51.686;5.138;2023-04-24T04:00:13;26.08;;;13.70;;
77061;SDS011;65989;51.686;5.138;2023-04-24T04:02:39;23.03;;;12.93;;
77061;SDS011;65989;51.686;5.138;2023-04-24T04:05:04;21.83;;;13.43;;
77061;SDS011;65989;51.686;5.138;2023-04-24T04:07:30;22.33;;;13.07;;
77061;SDS011;65989;51.686;5.138;2023-04-24T04:09:55;25.07;;;13.33;;
77061;SDS011;65989;51.686;5.138;2023-04-24T04:12:20;23.50;;;11.60;;
77061;SDS011;65989;51.686;5.138;2023-04-24T04:14:46;20.70;;;12.37;;
77061;SDS011;65989;51.686;5.138;2023-04-24T04:17:11;16.70;;;10.07;;
77061;SDS011;65989;51.686;5.138;2023-04-24T04:19:37;16.60;;;10.20;;
77061;SDS011;65989;51.686;5.138;2023-04-24T04:22:02;17.60;;;9.10;;
77061;SDS011;65989;51.686;5.138;2023-04-24T04:24:27;18.40;;;9.00;;
77061;SDS011;65989;51.686;5.138;2023-04-24T04:26:53;20.15;;;8.55;;
77061;SDS011;65989;51.686;5.138;2023-04-24T04:29:21;12.73;;;7.93;;
77061;SDS011;65989;51.686;5.138;2023-04-24T04:31:47;12.80;;;7.25;;
77061;SDS011;65989;51.686;5.138;2023-04-24T04:34:13;12.37;;;7.00;;
77061;SDS011;65989;51.686;5.138;2023-04-24T04:36:39;12.30;;;6.65;;
77061;SDS011;65989;51.686;5.138;2023-04-24T04:39:06;9.60;;;5.57;;
77061;SDS011;65989;51.686;5.138;2023-04-24T04:41:31;9.73;;;5.00;;
77061;SDS011;65989;51.686;5.138;2023-04-24T04:43:59;10.70;;;4.90;;
77061;SDS011;65989;51.686;5.138;2023-04-24T04:46:25;9.33;;;4.63;;
77061;SDS011;65989;51.686;5.138;2023-04-24T04:48:51;6.80;;;3.90;;
77061;SDS011;65989;51.686;5.138;2023-04-24T04:51:17;9.90;;;4.07;;
77061;SDS011;65989;51.686;5.138;2023-04-24T04:53:43;9.50;;;3.93;;
77061;SDS011;65989;51.686;5.138;2023-04-24T04:56:08;6.53;;;3.80;;
77061;SDS011;65989;51.686;5.138;2023-04-24T04:58:34;8.63;;;3.33;;
77061;SDS011;65989;51.686;5.138;2023-04-24T05:00:59;6.13;;;3.30;;
77061;SDS011;65989;51.686;5.138;2023-04-24T05:03:24;11.75;;;3.53;;
77061;SDS011;65989;51.686;5.138;2023-04-24T05:05:50;9.57;;;3.70;;
77061;SDS011;65989;51.686;5.138;2023-04-24T05:08:15;12.67;;;4.17;;
77061;SDS011;65989;51.686;5.138;2023-04-24T05:10:41;6.20;;;4.03;;
77061;SDS011;65989;51.686;5.138;2023-04-24T05:13:06;9.17;;;4.17;;
77061;SDS011;65989;51.686;5.138;2023-04-24T05:15:32;8.43;;;4.47;;
77061;SDS011;65989;51.686;5.138;2023-04-24T05:17:57;7.33;;;4.80;;
77061;SDS011;65989;51.686;5.138;2023-04-24T05:20:22;9.13;;;4.50;;
77061;SDS011;65989;51.686;5.138;2023-04-24T05:22:48;10.63;;;5.57;;
77061;SDS011;65989;51.686;5.138;2023-04-24T05:25:13;14.67;;;5.60;;
77061;SDS011;65989;51.686;5.138;2023-04-24T05:27:39;12.40;;;6.27;;
77061;SDS011;65989;51.686;5.138;2023-04-24T05:30:05;13.18;;;6.45;;
77061;SDS011;65989;51.686;5.138;2023-04-24T05:32:31;12.73;;;6.70;;
77061;SDS011;65989;51.686;5.138;2023-04-24T05:34:57;12.77;;;7.37;;
77061;SDS011;65989;51.686;5.138;2023-04-24T05:37:22;11.37;;;6.80;;
77061;SDS011;65989;51.686;5.138;2023-04-24T05:39:47;13.37;;;7.33;;
77061;SDS011;65989;51.686;5.138;2023-04-24T05:42:13;12.27;;;7.28;;
77061;SDS011;65989;51.686;5.138;2023-04-24T05:44:38;13.00;;;7.33;;
77061;SDS011;65989;51.686;5.138;2023-04-24T05:47:03;13.53;;;7.63;;
77061;SDS011;65989;51.686;5.138;2023-04-24T05:49:29;12.40;;;7.30;;
77061;SDS011;65989;51.686;5.138;2023-04-24T05:51:54;11.07;;;7.63;;
77061;SDS011;65989;51.686;5.138;2023-04-24T05:54:20;12.23;;;7.40;;
77061;SDS011;65989;51.686;5.138;2023-04-24T05:56:45;12.47;;;7.70;;
77061;SDS011;65989;51.686;5.138;2023-04-24T05:59:11;13.93;;;8.23;;
77061;SDS011;65989;51.686;5.138;2023-04-24T06:01:36;17.03;;;8.90;;
77061;SDS011;65989;51.686;5.138;2023-04-24T06:04:03;15.18;;;8.77;;
77061;SDS011;65989;51.686;5.138;2023-04-24T06:06:29;11.55;;;7.25;;
77061;SDS011;65989;51.686;5.138;2023-04-24T06:08:54;10.07;;;6.30;;
77061;SDS011;65989;51.686;5.138;2023-04-24T06:11:20;10.68;;;5.05;;
77061;SDS011;65989;51.686;5.138;2023-04-24T06:13:46;10.47;;;4.20;;
77061;SDS011;65989;51.686;5.138;2023-04-24T06:16:11;10.93;;;5.80;;
77061;SDS011;65989;51.686;5.138;2023-04-24T06:18:36;12.23;;;6.57;;
77061;SDS011;65989;51.686;5.138;2023-04-24T06:21:02;14.10;;;7.07;;
77061;SDS011;65989;51.686;5.138;2023-04-24T06:23:27;12.40;;;7.22;;
77061;SDS011;65989;51.686;5.138;2023-04-24T06:25:53;13.63;;;7.90;;
77061;SDS011;65989;51.686;5.138;2023-04-24T06:28:18;15.27;;;8.27;;
77061;SDS011;65989;51.686;5.138;2023-04-24T06:30:44;12.50;;;7.45;;
77061;SDS011;65989;51.686;5.138;2023-04-24T06:33:09;12.67;;;7.60;;
77061;SDS011;65989;51.686;5.138;2023-04-24T06:35:35;14.63;;;7.83;;
77061;SDS011;65989;51.686;5.138;2023-04-24T06:38:01;18.55;;;8.45;;
77061;SDS011;65989;51.686;5.138;2023-04-24T06:40:26;16.83;;;9.97;;
77061;SDS011;65989;51.686;5.138;2023-04-24T06:42:52;21.00;;;9.83;;
77061;SDS011;65989;51.686;5.138;2023-04-24T06:45:17;22.42;;;10.98;;
77061;SDS011;65989;51.686;5.138;2023-04-24T06:47:43;23.90;;;11.23;;
77061;SDS011;65989;51.686;5.138;2023-04-24T06:50:09;19.10;;;10.63;;
77061;SDS011;65989;51.686;5.138;2023-04-24T06:52:34;23.17;;;11.57;;
77061;SDS011;65989;51.686;5.138;2023-04-24T06:55:00;27.70;;;11.45;;
77061;SDS011;65989;51.686;5.138;2023-04-24T06:57:27;21.73;;;11.30;;
77061;SDS011;65989;51.686;5.138;2023-04-24T06:59:53;26.58;;;11.45;;
77061;SDS011;65989;51.686;5.138;2023-04-24T07:02:18;24.10;;;11.63;;
77061;SDS011;65989;51.686;5.138;2023-04-24T07:04:44;24.85;;;10.38;;
77061;SDS011;65989;51.686;5.138;2023-04-24T07:07:12;24.83;;;10.60;;
77061;SDS011;65989;51.686;5.138;2023-04-24T07:09:39;23.73;;;10.65;;
77061;SDS011;65989;51.686;5.138;2023-04-24T07:12:07;22.93;;;11.40;;
77061;SDS011;65989;51.686;5.138;2023-04-24T07:14:33;29.48;;;10.98;;
77061;SDS011;65989;51.686;5.138;2023-04-24T07:16:58;20.77;;;9.87;;
77061;SDS011;65989;51.686;5.138;2023-04-24T07:19:24;19.58;;;8.35;;
77061;SDS011;65989;51.686;5.138;2023-04-24T07:21:49;18.97;;;7.60;;
77061;SDS011;65989;51.686;5.138;2023-04-24T07:24:15;18.40;;;8.00;;
77061;SDS011;65989;51.686;5.138;2023-04-24T07:26:40;20.30;;;7.53;;
77061;SDS011;65989;51.686;5.138;2023-04-24T07:29:06;21.08;;;7.05;;
77061;SDS011;65989;51.686;5.138;2023-04-24T07:31:32;27.77;;;7.50;;
77061;SDS011;65989;51.686;5.138;2023-04-24T07:33:57;22.30;;;7.70;;
77061;SDS011;65989;51.686;5.138;2023-04-24T07:36:23;22.17;;;6.97;;
77061;SDS011;65989;51.686;5.138;2023-04-24T07:38:49;25.38;;;6.43;;
77061;SDS011;65989;51.686;5.138;2023-04-24T07:41:15;23.73;;;7.18;;
77061;SDS011;65989;51.686;5.138;2023-04-24T07:43:40;22.23;;;7.37;;
77061;SDS011;65989;51.686;5.138;2023-04-24T07:46:09;24.85;;;6.50;;
77061;SDS011;65989;51.686;5.138;2023-04-24T07:48:35;26.55;;;7.07;;
77061;SDS011;65989;51.686;5.138;2023-04-24T07:51:00;24.73;;;7.00;;
77061;SDS011;65989;51.686;5.138;2023-04-24T07:53:25;22.20;;;6.53;;
77061;SDS011;65989;51.686;5.138;2023-04-24T07:55:51;23.47;;;6.57;;
77061;SDS011;65989;51.686;5.138;2023-04-24T07:58:16;24.17;;;7.37;;
77061;SDS011;65989;51.686;5.138;2023-04-24T08:00:42;24.50;;;6.82;;
77061;SDS011;65989;51.686;5.138;2023-04-24T08:03:07;24.00;;;7.30;;
77061;SDS011;65989;51.686;5.138;2023-04-24T08:05:33;23.47;;;6.93;;
77061;SDS011;65989;51.686;5.138;2023-04-24T08:07:58;23.80;;;6.77;;
77061;SDS011;65989;51.686;5.138;2023-04-24T08:10:24;21.53;;;6.10;;
77061;SDS011;65989;51.686;5.138;2023-04-24T08:12:50;18.17;;;5.40;;
77061;SDS011;65989;51.686;5.138;2023-04-24T08:15:16;24.67;;;6.00;;
77061;SDS011;65989;51.686;5.138;2023-04-24T08:17:42;21.52;;;5.65;;
77061;SDS011;65989;51.686;5.138;2023-04-24T08:20:08;27.20;;;4.77;;
77061;SDS011;65989;51.686;5.138;2023-04-24T08:22:38;19.75;;;4.93;;
77061;SDS011;65989;51.686;5.138;2023-04-24T08:25:05;24.15;;;5.20;;
77061;SDS011;65989;51.686;5.138;2023-04-24T08:27:31;24.02;;;4.82;;
77061;SDS011;65989;51.686;5.138;2023-04-24T08:29:56;15.90;;;4.70;;
77061;SDS011;65989;51.686;5.138;2023-04-24T08:32:23;23.38;;;5.43;;
77061;SDS011;65989;51.686;5.138;2023-04-24T08:34:49;24.00;;;5.33;;
77061;SDS011;65989;51.686;5.138;2023-04-24T08:37:14;23.10;;;4.45;;
77061;SDS011;65989;51.686;5.138;2023-04-24T08:39:40;20.90;;;4.47;;
77061;SDS011;65989;51.686;5.138;2023-04-24T08:42:05;18.47;;;4.60;;
77061;SDS011;65989;51.686;5.138;2023-04-24T08:44:33;19.27;;;4.03;;
77061;SDS011;65989;51.686;5.138;2023-04-24T08:46:59;22.85;;;4.45;;
77061;SDS011;65989;51.686;5.138;2023-04-24T08:49:26;17.97;;;3.93;;
77061;SDS011;65989;51.686;5.138;2023-04-24T08:51:54;17.50;;;3.72;;
77061;SDS011;65989;51.686;5.138;2023-04-24T08:54:19;13.53;;;3.60;;
77061;SDS011;65989;51.686;5.138;2023-04-24T08:56:47;14.33;;;3.40;;
77061;SDS011;65989;51.686;5.138;2023-04-24T08:59:16;13.13;;;3.10;;
77061;SDS011;65989;51.686;5.138;2023-04-24T09:01:44;18.55;;;4.28;;
77061;SDS011;65989;51.686;5.138;2023-04-24T09:04:11;16.45;;;3.58;;
77061;SDS011;65989;51.686;5.138;2023-04-24T09:06:40;14.80;;;3.60;;
77061;SDS011;65989;51.686;5.138;2023-04-24T09:09:05;13.47;;;3.50;;
77061;SDS011;65989;51.686;5.138;2023-04-24T09:11:32;14.43;;;3.60;;
77061;SDS011;65989;51.686;5.138;2023-04-24T09:14:00;12.20;;;3.33;;
77061;SDS011;65989;51.686;5.138;2023-04-24T09:16:26;15.53;;;3.63;;
77061;SDS011;65989;51.686;5.138;2023-04-24T09:18:52;16.83;;;2.97;;
77061;SDS011;65989;51.686;5.138;2023-04-24T09:21:19;13.68;;;2.85;;
77061;SDS011;65989;51.686;5.138;2023-04-24T09:23:47;11.00;;;2.70;;
77061;SDS011;65989;51.686;5.138;2023-04-24T09:26:23;14.18;;;3.33;;
77061;SDS011;65989;51.686;5.138;2023-04-24T09:28:49;18.23;;;3.63;;
77061;SDS011;65989;51.686;5.138;2023-04-24T09:31:17;18.67;;;3.50;;
77061;SDS011;65989;51.686;5.138;2023-04-24T09:36:18;14.73;;;3.25;;
77061;SDS011;65989;51.686;5.138;2023-04-24T09:38:44;16.30;;;3.10;;
77061;SDS011;65989;51.686;5.138;2023-04-24T09:41:12;15.07;;;2.85;;
77061;SDS011;65989;51.686;5.138;2023-04-24T09:43:38;16.55;;;3.58;;
77061;SDS011;65989;51.686;5.138;2023-04-24T09:46:06;11.50;;;3.00;;
77061;SDS011;65989;51.686;5.138;2023-04-24T09:48:34;11.00;;;2.92;;
77061;SDS011;65989;51.686;5.138;2023-04-24T09:51:01;16.88;;;3.72;;
77061;SDS011;65989;51.686;5.138;2023-04-24T09:53:28;11.93;;;2.92;;
77061;SDS011;65989;51.686;5.138;2023-04-24T09:55:55;9.90;;;2.63;;
77061;SDS011;65989;51.686;5.138;2023-04-24T09:58:24;9.13;;;2.93;;
77061;SDS011;65989;51.686;5.138;2023-04-24T10:00:53;13.45;;;2.50;;
77061;SDS011;65989;51.686;5.138;2023-04-24T10:03:20;9.38;;;2.50;;
77061;SDS011;65989;51.686;5.138;2023-04-24T10:05:46;7.60;;;2.10;;
77061;SDS011;65989;51.686;5.138;2023-04-24T10:08:12;9.18;;;2.47;;
77061;SDS011;65989;51.686;5.138;2023-04-24T10:10:41;10.57;;;2.37;;
77061;SDS011;65989;51.686;5.138;2023-04-24T10:13:12;8.10;;;2.00;;
77061;SDS011;65989;51.686;5.138;2023-04-24T10:15:38;7.45;;;2.40;;
77061;SDS011;65989;51.686;5.138;2023-04-24T10:18:05;8.32;;;2.38;;
77061;SDS011;65989;51.686;5.138;2023-04-24T10:20:32;4.57;;;1.92;;
77061;SDS011;65989;51.686;5.138;2023-04-24T10:22:58;5.77;;;2.00;;
77061;SDS011;65989;51.686;5.138;2023-04-24T10:25:28;8.02;;;1.90;;
77061;SDS011;65989;51.686;5.138;2023-04-24T10:27:56;6.38;;;1.80;;
77061;SDS011;65989;51.686;5.138;2023-04-24T10:30:25;9.77;;;1.63;;
77061;SDS011;65989;51.686;5.138;2023-04-24T10:32:52;3.78;;;1.40;;
77061;SDS011;65989;51.686;5.138;2023-04-24T10:35:18;5.97;;;1.87;;
77061;SDS011;65989;51.686;5.138;2023-04-24T10:37:56;5.80;;;1.98;;
77061;SDS011;65989;51.686;5.138;2023-04-24T10:40:27;7.03;;;2.00;;
77061;SDS011;65989;51.686;5.138;2023-04-24T10:42:55;4.45;;;1.52;;
77061;SDS011;65989;51.686;5.138;2023-04-24T10:45:22;6.55;;;1.90;;
77061;SDS011;65989;51.686;5.138;2023-04-24T10:47:58;8.35;;;2.00;;
77061;SDS011;65989;51.686;5.138;2023-04-24T10:50:26;5.75;;;1.85;;
77061;SDS011;65989;51.686;5.138;2023-04-24T10:52:52;8.50;;;1.70;;
77061;SDS011;65989;51.686;5.138;2023-04-24T10:58:07;4.40;;;1.40;;
77061;SDS011;65989;51.686;5.138;2023-04-24T11:00:33;5.27;;;1.60;;
77061;SDS011;65989;51.686;5.138;2023-04-24T11:03:04;6.05;;;1.63;;
77061;SDS011;65989;51.686;5.138;2023-04-24T11:08:59;5.65;;;1.60;;
77061;SDS011;65989;51.686;5.138;2023-04-24T11:11:30;7.90;;;1.83;;
77061;SDS011;65989;51.686;5.138;2023-04-24T11:26:53;5.63;;;1.65;;
77061;SDS011;65989;51.686;5.138;2023-04-24T11:32:24;6.53;;;1.73;;
77061;SDS011;65989;51.686;5.138;2023-04-24T11:37:49;6.35;;;1.90;;
77061;SDS011;65989;51.686;5.138;2023-04-24T11:40:17;8.57;;;1.75;;
77061;SDS011;65989;51.686;5.138;2023-04-24T11:42:51;6.70;;;1.92;;
77061;SDS011;65989;51.686;5.138;2023-04-24T11:45:18;7.40;;;1.80;;
77061;SDS011;65989;51.686;5.138;2023-04-24T11:47:46;6.20;;;1.70;;
77061;SDS011;65989;51.686;5.138;2023-04-24T11:50:13;10.43;;;2.00;;
77061;SDS011;65989;51.686;5.138;2023-04-24T11:52:39;7.70;;;1.85;;
77061;SDS011;65989;51.686;5.138;2023-04-24T11:57:44;6.00;;;1.42;;
77061;SDS011;65989;51.686;5.138;2023-04-24T12:00:18;5.70;;;1.70;;
77061;SDS011;65989;51.686;5.138;2023-04-24T12:02:43;8.77;;;1.70;;
77061;SDS011;65989;51.686;5.138;2023-04-24T12:05:18;6.13;;;1.40;;
77061;SDS011;65989;51.686;5.138;2023-04-24T12:07:50;11.80;;;1.70;;
77061;SDS011;65989;51.686;5.138;2023-04-24T12:10:24;8.27;;;2.08;;
77061;SDS011;65989;51.686;5.138;2023-04-24T12:12:50;6.30;;;1.80;;
77061;SDS011;65989;51.686;5.138;2023-04-24T12:15:17;6.07;;;1.60;;
77061;SDS011;65989;51.686;5.138;2023-04-24T12:17:44;5.35;;;1.80;;
77061;SDS011;65989;51.686;5.138;2023-04-24T12:20:09;6.50;;;2.10;;
77061;SDS011;65989;51.686;5.138;2023-04-24T12:23:09;10.98;;;1.90;;
77061;SDS011;65989;51.686;5.138;2023-04-24T12:25:29;4.60;;;1.60;;
77061;SDS011;65989;51.686;5.138;2023-04-24T12:28:16;5.70;;;1.70;;
77061;SDS011;65989;51.686;5.138;2023-04-24T12:30:42;7.65;;;1.70;;
77061;SDS011;65989;51.686;5.138;2023-04-24T12:33:20;7.28;;;1.85;;
77061;SDS011;65989;51.686;5.138;2023-04-24T12:35:47;9.02;;;2.67;;
77061;SDS011;65989;51.686;5.138;2023-04-24T12:38:16;7.23;;;2.10;;
77061;SDS011;65989;51.686;5.138;2023-04-24T12:40:46;7.45;;;2.08;;
77061;SDS011;65989;51.686;5.138;2023-04-24T12:43:18;12.33;;;2.30;;
77061;SDS011;65989;51.686;5.138;2023-04-24T12:45:45;7.53;;;2.00;;
77061;SDS011;65989;51.686;5.138;2023-04-24T12:48:11;7.75;;;2.20;;
77061;SDS011;65989;51.686;5.138;2023-04-24T12:50:36;6.97;;;2.03;;
77061;SDS011;65989;51.686;5.138;2023-04-24T12:53:03;7.88;;;1.92;;
77061;SDS011;65989;51.686;5.138;2023-04-24T12:55:28;7.47;;;2.23;;
77061;SDS011;65989;51.686;5.138;2023-04-24T12:57:54;8.13;;;2.33;;
77061;SDS011;65989;51.686;5.138;2023-04-24T13:00:20;8.50;;;2.30;;
77061;SDS011;65989;51.686;5.138;2023-04-24T13:02:46;7.03;;;1.90;;
77061;SDS011;65989;51.686;5.138;2023-04-24T13:05:11;10.17;;;2.00;;
77061;SDS011;65989;51.686;5.138;2023-04-24T13:07:38;5.35;;;1.92;;
77061;SDS011;65989;51.686;5.138;2023-04-24T13:10:04;7.75;;;1.80;;
77061;SDS011;65989;51.686;5.138;2023-04-24T13:12:30;4.13;;;1.58;;
77061;SDS011;65989;51.686;5.138;2023-04-24T13:14:56;5.03;;;1.90;;
77061;SDS011;65989;51.686;5.138;2023-04-24T13:17:22;5.55;;;1.85;;
77061;SDS011;65989;51.686;5.138;2023-04-24T13:19:49;4.83;;;1.83;;
77061;SDS011;65989;51.686;5.138;2023-04-24T13:22:15;4.72;;;1.75;;
77061;SDS011;65989;51.686;5.138;2023-04-24T13:24:42;7.70;;;1.50;;
77061;SDS011;65989;51.686;5.138;2023-04-24T13:27:08;4.63;;;1.70;;
77061;SDS011;65989;51.686;5.138;2023-04-24T13:29:34;3.78;;;1.42;;
77061;SDS011;65989;51.686;5.138;2023-04-24T13:32:00;3.93;;;1.60;;
77061;SDS011;65989;51.686;5.138;2023-04-24T13:34:25;4.03;;;1.70;;
77061;SDS011;65989;51.686;5.138;2023-04-24T13:36:52;5.38;;;1.52;;
77061;SDS011;65989;51.686;5.138;2023-04-24T13:39:19;3.60;;;1.50;;
77061;SDS011;65989;51.686;5.138;2023-04-24T13:41:44;6.73;;;1.70;;
77061;SDS011;65989;51.686;5.138;2023-04-24T13:44:12;5.90;;;1.63;;
77061;SDS011;65989;51.686;5.138;2023-04-24T13:46:37;6.40;;;1.93;;
77061;SDS011;65989;51.686;5.138;2023-04-24T13:49:03;8.43;;;1.97;;
77061;SDS011;65989;51.686;5.138;2023-04-24T13:51:31;7.93;;;2.15;;
77061;SDS011;65989;51.686;5.138;2023-04-24T13:53:57;7.13;;;1.90;;
77061;SDS011;65989;51.686;5.138;2023-04-24T13:56:23;6.97;;;1.90;;
77061;SDS011;65989;51.686;5.138;2023-04-24T13:58:48;8.77;;;2.28;;
77061;SDS011;65989;51.686;5.138;2023-04-24T14:01:14;9.13;;;1.93;;
77061;SDS011;65989;51.686;5.138;2023-04-24T14:03:40;7.00;;;2.47;;
77061;SDS011;65989;51.686;5.138;2023-04-24T14:06:07;8.88;;;2.28;;
77061;SDS011;65989;51.686;5.138;2023-04-24T14:08:32;8.47;;;2.60;;
77061;SDS011;65989;51.686;5.138;2023-04-24T14:10:57;6.27;;;2.10;;
77061;SDS011;65989;51.686;5.138;2023-04-24T14:13:23;6.65;;;2.15;;
77061;SDS011;65989;51.686;5.138;2023-04-24T14:15:49;8.73;;;2.50;;
77061;SDS011;65989;51.686;5.138;2023-04-24T14:18:14;9.37;;;2.33;;
77061;SDS011;65989;51.686;5.138;2023-04-24T14:20:40;6.18;;;2.55;;
77061;SDS011;65989;51.686;5.138;2023-04-24T14:23:05;7.50;;;2.43;;
77061;SDS011;65989;51.686;5.138;2023-04-24T14:25:31;13.17;;;2.63;;
77061;SDS011;65989;51.686;5.138;2023-04-24T14:27:56;7.78;;;2.40;;
77061;SDS011;65989;51.686;5.138;2023-04-24T14:30:22;11.30;;;2.83;;
77061;SDS011;65989;51.686;5.138;2023-04-24T14:32:47;8.07;;;2.40;;
77061;SDS011;65989;51.686;5.138;2023-04-24T14:35:13;7.20;;;2.28;;
77061;SDS011;65989;51.686;5.138;2023-04-24T14:37:39;7.65;;;2.20;;
77061;SDS011;65989;51.686;5.138;2023-04-24T14:40:06;6.05;;;2.30;;
77061;SDS011;65989;51.686;5.138;2023-04-24T14:42:33;6.57;;;2.30;;
77061;SDS011;65989;51.686;5.138;2023-04-24T14:44:59;10.27;;;2.83;;
77061;SDS011;65989;51.686;5.138;2023-04-24T14:47:24;8.40;;;2.87;;
77061;SDS011;65989;51.686;5.138;2023-04-24T14:49:50;8.48;;;2.85;;
77061;SDS011;65989;51.686;5.138;2023-04-24T14:52:16;10.33;;;2.67;;
77061;SDS011;65989;51.686;5.138;2023-04-24T14:54:41;8.45;;;2.80;;
77061;SDS011;65989;51.686;5.138;2023-04-24T14:57:07;5.25;;;2.30;;
77061;SDS011;65989;51.686;5.138;2023-04-24T14:59:33;8.57;;;2.70;;